sensor_id;sensor_type;location;lat;lon;timestamp;P1;durP1;ratioP1;P2;durP2;ratioP2
15425;SDS011;7812;50.072;7.036;2022-08-19T00:00:06;8.00;;;7.30;;
15425;SDS011;7812;50.072;7.036;2022-08-19T00:02:34;8.13;;;7.43;;
15425;SDS011;7812;50.072;7.036;2022-08-19T00:05:01;8.03;;;7.43;;
15425;SDS011;7812;50.072;7.036;2022-08-19T00:07:28;7.90;;;7.30;;
15425;SDS011;7812;50.072;7.036;2022-08-19T00:09:54;7.40;;;6.87;;
15425;SDS011;7812;50.072;7.036;2022-08-19T00:12:19;8.67;;;7.80;;
15425;SDS011;7812;50.072;7.036;2022-08-19T00:14:45;8.10;;;7.50;;
15425;SDS011;7812;50.072;7.036;2022-08-19T00:17:11;8.67;;;7.50;;
15425;SDS011;7812;50.072;7.036;2022-08-19T00:19:37;8.27;;;7.67;;
15425;SDS011;7812;50.072;7.036;2022-08-19T00:22:03;8.33;;;7.60;;
15425;SDS011;7812;50.072;7.036;2022-08-19T00:24:30;7.90;;;7.20;;
15425;SDS011;7812;50.072;7.036;2022-08-19T00:26:57;7.80;;;7.03;;
15425;SDS011;7812;50.072;7.036;2022-08-19T00:29:24;8.40;;;7.67;;
15425;SDS011;7812;50.072;7.036;2022-08-19T00:31:50;7.20;;;6.60;;
15425;SDS011;7812;50.072;7.036;2022-08-19T00:34:19;8.33;;;7.40;;
15425;SDS011;7812;50.072;7.036;2022-08-19T00:36:46;7.83;;;7.20;;
15425;SDS011;7812;50.072;7.036;2022-08-19T00:39:14;7.43;;;6.83;;
15425;SDS011;7812;50.072;7.036;2022-08-19T00:41:42;8.23;;;7.43;;
15425;SDS011;7812;50.072;7.036;2022-08-19T00:44:23;8.60;;;7.90;;
15425;SDS011;7812;50.072;7.036;2022-08-19T00:46:52;7.70;;;7.10;;
15425;SDS011;7812;50.072;7.036;2022-08-19T00:51:54;7.93;;;7.33;;
15425;SDS011;7812;50.072;7.036;2022-08-19T00:54:57;8.13;;;7.40;;
15425;SDS011;7812;50.072;7.036;2022-08-19T00:57:26;8.23;;;7.53;;
15425;SDS011;7812;50.072;7.036;2022-08-19T00:59:55;8.80;;;8.00;;
15425;SDS011;7812;50.072;7.036;2022-08-19T01:02:23;7.30;;;6.70;;
15425;SDS011;7812;50.072;7.036;2022-08-19T01:04:49;7.67;;;6.97;;
15425;SDS011;7812;50.072;7.036;2022-08-19T01:07:15;7.83;;;7.13;;
15425;SDS011;7812;50.072;7.036;2022-08-19T01:09:41;7.90;;;7.20;;
15425;SDS011;7812;50.072;7.036;2022-08-19T01:12:07;8.23;;;7.53;;
15425;SDS011;7812;50.072;7.036;2022-08-19T01:14:33;7.50;;;6.90;;
15425;SDS011;7812;50.072;7.036;2022-08-19T01:17:01;8.23;;;7.43;;
15425;SDS011;7812;50.072;7.036;2022-08-19T01:19:28;7.83;;;7.13;;
15425;SDS011;7812;50.072;7.036;2022-08-19T01:22:02;7.00;;;6.50;;
15425;SDS011;7812;50.072;7.036;2022-08-19T01:24:44;7.97;;;7.27;;
15425;SDS011;7812;50.072;7.036;2022-08-19T01:27:10;7.73;;;7.13;;
15425;SDS011;7812;50.072;7.036;2022-08-19T01:29:37;7.83;;;7.20;;
15425;SDS011;7812;50.072;7.036;2022-08-19T01:32:05;7.17;;;6.57;;
15425;SDS011;7812;50.072;7.036;2022-08-19T01:34:32;7.07;;;6.47;;
15425;SDS011;7812;50.072;7.036;2022-08-19T01:36:59;7.87;;;7.27;;
15425;SDS011;7812;50.072;7.036;2022-08-19T01:39:30;7.60;;;6.90;;
15425;SDS011;7812;50.072;7.036;2022-08-19T01:41:56;7.60;;;6.90;;
15425;SDS011;7812;50.072;7.036;2022-08-19T01:44:21;7.43;;;6.83;;
15425;SDS011;7812;50.072;7.036;2022-08-19T01:46:49;7.17;;;6.60;;
15425;SDS011;7812;50.072;7.036;2022-08-19T01:49:16;7.37;;;6.77;;
15425;SDS011;7812;50.072;7.036;2022-08-19T01:51:43;6.90;;;6.40;;
15425;SDS011;7812;50.072;7.036;2022-08-19T01:54:10;7.60;;;7.00;;
15425;SDS011;7812;50.072;7.036;2022-08-19T01:56:37;7.50;;;6.90;;
15425;SDS011;7812;50.072;7.036;2022-08-19T01:59:05;6.93;;;6.40;;
15425;SDS011;7812;50.072;7.036;2022-08-19T02:01:37;7.57;;;6.97;;
15425;SDS011;7812;50.072;7.036;2022-08-19T02:04:03;6.50;;;6.00;;
15425;SDS011;7812;50.072;7.036;2022-08-19T02:06:30;7.33;;;6.73;;
15425;SDS011;7812;50.072;7.036;2022-08-19T02:08:55;7.53;;;6.93;;
15425;SDS011;7812;50.072;7.036;2022-08-19T02:11:22;7.30;;;6.70;;
15425;SDS011;7812;50.072;7.036;2022-08-19T02:13:51;6.90;;;6.30;;
15425;SDS011;7812;50.072;7.036;2022-08-19T02:16:18;7.53;;;6.90;;
15425;SDS011;7812;50.072;7.036;2022-08-19T02:18:45;7.17;;;6.63;;
15425;SDS011;7812;50.072;7.036;2022-08-19T02:21:13;7.40;;;6.80;;
15425;SDS011;7812;50.072;7.036;2022-08-19T02:23:40;7.80;;;7.20;;
15425;SDS011;7812;50.072;7.036;2022-08-19T02:26:07;8.03;;;7.33;;
15425;SDS011;7812;50.072;7.036;2022-08-19T02:28:33;7.73;;;7.13;;
15425;SDS011;7812;50.072;7.036;2022-08-19T02:30:58;7.90;;;7.27;;
15425;SDS011;7812;50.072;7.036;2022-08-19T02:33:25;7.27;;;6.77;;
15425;SDS011;7812;50.072;7.036;2022-08-19T02:35:51;8.43;;;7.17;;
15425;SDS011;7812;50.072;7.036;2022-08-19T02:38:17;7.20;;;6.60;;
15425;SDS011;7812;50.072;7.036;2022-08-19T02:40:54;8.03;;;7.37;;
15425;SDS011;7812;50.072;7.036;2022-08-19T02:43:22;6.63;;;6.03;;
15425;SDS011;7812;50.072;7.036;2022-08-19T02:45:48;7.63;;;7.00;;
15425;SDS011;7812;50.072;7.036;2022-08-19T02:48:16;7.07;;;6.57;;
15425;SDS011;7812;50.072;7.036;2022-08-19T02:50:43;7.13;;;6.53;;
15425;SDS011;7812;50.072;7.036;2022-08-19T02:53:10;6.70;;;6.10;;
15425;SDS011;7812;50.072;7.036;2022-08-19T02:55:35;6.93;;;6.33;;
15425;SDS011;7812;50.072;7.036;2022-08-19T02:58:08;7.83;;;7.13;;
15425;SDS011;7812;50.072;7.036;2022-08-19T03:00:33;7.63;;;7.03;;
15425;SDS011;7812;50.072;7.036;2022-08-19T03:03:02;7.33;;;6.63;;
15425;SDS011;7812;50.072;7.036;2022-08-19T03:05:28;7.07;;;6.47;;
15425;SDS011;7812;50.072;7.036;2022-08-19T03:07:53;7.23;;;6.63;;
15425;SDS011;7812;50.072;7.036;2022-08-19T03:10:20;6.80;;;6.30;;
15425;SDS011;7812;50.072;7.036;2022-08-19T03:12:46;7.50;;;6.80;;
15425;SDS011;7812;50.072;7.036;2022-08-19T03:15:11;6.80;;;6.30;;
15425;SDS011;7812;50.072;7.036;2022-08-19T03:17:37;8.00;;;7.37;;
15425;SDS011;7812;50.072;7.036;2022-08-19T03:20:03;7.70;;;7.10;;
15425;SDS011;7812;50.072;7.036;2022-08-19T03:22:29;7.03;;;6.53;;
15425;SDS011;7812;50.072;7.036;2022-08-19T03:24:55;7.10;;;6.50;;
15425;SDS011;7812;50.072;7.036;2022-08-19T03:27:21;7.40;;;6.80;;
15425;SDS011;7812;50.072;7.036;2022-08-19T03:29:47;7.30;;;6.70;;
15425;SDS011;7812;50.072;7.036;2022-08-19T03:32:13;7.13;;;6.60;;
15425;SDS011;7812;50.072;7.036;2022-08-19T03:34:39;6.97;;;6.30;;
15425;SDS011;7812;50.072;7.036;2022-08-19T03:37:06;7.60;;;6.87;;
15425;SDS011;7812;50.072;7.036;2022-08-19T03:39:35;7.23;;;6.63;;
15425;SDS011;7812;50.072;7.036;2022-08-19T03:42:02;7.40;;;6.70;;
15425;SDS011;7812;50.072;7.036;2022-08-19T03:44:29;7.33;;;6.73;;
15425;SDS011;7812;50.072;7.036;2022-08-19T03:46:57;7.60;;;7.00;;
15425;SDS011;7812;50.072;7.036;2022-08-19T03:49:28;7.73;;;7.03;;
15425;SDS011;7812;50.072;7.036;2022-08-19T03:51:55;7.80;;;7.20;;
15425;SDS011;7812;50.072;7.036;2022-08-19T03:54:22;7.90;;;7.13;;
15425;SDS011;7812;50.072;7.036;2022-08-19T03:56:50;7.90;;;7.27;;
15425;SDS011;7812;50.072;7.036;2022-08-19T03:59:24;7.30;;;6.70;;
15425;SDS011;7812;50.072;7.036;2022-08-19T04:01:52;7.30;;;6.70;;
15425;SDS011;7812;50.072;7.036;2022-08-19T04:04:22;7.60;;;6.90;;
15425;SDS011;7812;50.072;7.036;2022-08-19T04:06:48;7.80;;;7.10;;
15425;SDS011;7812;50.072;7.036;2022-08-19T04:09:16;7.77;;;7.07;;
15425;SDS011;7812;50.072;7.036;2022-08-19T04:11:45;7.63;;;6.93;;
15425;SDS011;7812;50.072;7.036;2022-08-19T04:14:14;7.67;;;7.07;;
15425;SDS011;7812;50.072;7.036;2022-08-19T04:16:42;7.83;;;7.23;;
15425;SDS011;7812;50.072;7.036;2022-08-19T04:19:09;8.23;;;7.50;;
15425;SDS011;7812;50.072;7.036;2022-08-19T04:21:35;8.73;;;7.60;;
15425;SDS011;7812;50.072;7.036;2022-08-19T04:24:01;7.10;;;6.60;;
15425;SDS011;7812;50.072;7.036;2022-08-19T04:26:30;7.80;;;7.10;;
15425;SDS011;7812;50.072;7.036;2022-08-19T04:28:58;7.13;;;6.63;;
15425;SDS011;7812;50.072;7.036;2022-08-19T04:31:26;7.47;;;6.87;;
15425;SDS011;7812;50.072;7.036;2022-08-19T04:33:53;7.50;;;6.90;;
15425;SDS011;7812;50.072;7.036;2022-08-19T04:36:26;7.53;;;6.93;;
15425;SDS011;7812;50.072;7.036;2022-08-19T04:38:54;8.03;;;7.43;;
15425;SDS011;7812;50.072;7.036;2022-08-19T04:41:22;7.60;;;7.00;;
15425;SDS011;7812;50.072;7.036;2022-08-19T04:44:06;7.63;;;7.03;;
15425;SDS011;7812;50.072;7.036;2022-08-19T04:46:33;7.77;;;7.07;;
15425;SDS011;7812;50.072;7.036;2022-08-19T04:49:00;7.43;;;6.83;;
15425;SDS011;7812;50.072;7.036;2022-08-19T04:51:26;7.40;;;6.87;;
15425;SDS011;7812;50.072;7.036;2022-08-19T04:53:52;7.50;;;6.90;;
15425;SDS011;7812;50.072;7.036;2022-08-19T04:56:19;6.93;;;6.33;;
15425;SDS011;7812;50.072;7.036;2022-08-19T04:58:47;7.73;;;7.13;;
15425;SDS011;7812;50.072;7.036;2022-08-19T05:01:17;7.67;;;6.97;;
15425;SDS011;7812;50.072;7.036;2022-08-19T05:03:45;7.30;;;6.70;;
15425;SDS011;7812;50.072;7.036;2022-08-19T05:06:12;7.57;;;6.90;;
15425;SDS011;7812;50.072;7.036;2022-08-19T05:08:39;8.20;;;7.50;;
15425;SDS011;7812;50.072;7.036;2022-08-19T05:11:30;7.37;;;6.77;;
15425;SDS011;7812;50.072;7.036;2022-08-19T05:13:56;6.87;;;6.37;;
15425;SDS011;7812;50.072;7.036;2022-08-19T05:16:23;6.90;;;6.30;;
15425;SDS011;7812;50.072;7.036;2022-08-19T05:18:49;7.20;;;6.50;;
15425;SDS011;7812;50.072;7.036;2022-08-19T05:21:34;6.77;;;6.17;;
15425;SDS011;7812;50.072;7.036;2022-08-19T05:24:19;10.20;;;6.87;;
15425;SDS011;7812;50.072;7.036;2022-08-19T05:26:48;8.27;;;7.57;;
15425;SDS011;7812;50.072;7.036;2022-08-19T05:29:15;7.80;;;6.87;;
15425;SDS011;7812;50.072;7.036;2022-08-19T05:31:43;6.90;;;6.40;;
15425;SDS011;7812;50.072;7.036;2022-08-19T05:34:09;7.00;;;6.40;;
15425;SDS011;7812;50.072;7.036;2022-08-19T05:36:37;7.20;;;6.60;;
15425;SDS011;7812;50.072;7.036;2022-08-19T05:39:05;7.30;;;6.70;;
15425;SDS011;7812;50.072;7.036;2022-08-19T05:41:32;6.83;;;6.23;;
15425;SDS011;7812;50.072;7.036;2022-08-19T05:43:58;6.67;;;6.13;;
15425;SDS011;7812;50.072;7.036;2022-08-19T05:46:27;6.60;;;6.03;;
15425;SDS011;7812;50.072;7.036;2022-08-19T05:48:54;6.27;;;5.77;;
15425;SDS011;7812;50.072;7.036;2022-08-19T05:51:21;5.77;;;5.37;;
15425;SDS011;7812;50.072;7.036;2022-08-19T05:53:49;5.97;;;5.50;;
15425;SDS011;7812;50.072;7.036;2022-08-19T05:56:15;6.00;;;5.50;;
15425;SDS011;7812;50.072;7.036;2022-08-19T05:58:43;6.30;;;5.80;;
15425;SDS011;7812;50.072;7.036;2022-08-19T06:01:14;5.93;;;5.43;;
15425;SDS011;7812;50.072;7.036;2022-08-19T06:03:42;6.17;;;5.67;;
15425;SDS011;7812;50.072;7.036;2022-08-19T06:06:09;6.47;;;5.77;;
15425;SDS011;7812;50.072;7.036;2022-08-19T06:08:36;6.27;;;5.67;;
15425;SDS011;7812;50.072;7.036;2022-08-19T06:11:18;5.70;;;5.30;;
15425;SDS011;7812;50.072;7.036;2022-08-19T06:13:44;6.47;;;5.83;;
15425;SDS011;7812;50.072;7.036;2022-08-19T06:16:15;6.83;;;6.33;;
15425;SDS011;7812;50.072;7.036;2022-08-19T06:18:48;5.63;;;5.23;;
15425;SDS011;7812;50.072;7.036;2022-08-19T06:21:17;6.43;;;5.93;;
15425;SDS011;7812;50.072;7.036;2022-08-19T06:23:51;5.97;;;5.50;;
15425;SDS011;7812;50.072;7.036;2022-08-19T06:26:17;5.90;;;5.40;;
15425;SDS011;7812;50.072;7.036;2022-08-19T06:28:44;6.93;;;6.33;;
15425;SDS011;7812;50.072;7.036;2022-08-19T06:31:25;6.10;;;5.53;;
15425;SDS011;7812;50.072;7.036;2022-08-19T06:33:52;6.10;;;5.70;;
15425;SDS011;7812;50.072;7.036;2022-08-19T06:36:28;6.57;;;6.00;;
15425;SDS011;7812;50.072;7.036;2022-08-19T06:39:02;6.23;;;5.73;;
15425;SDS011;7812;50.072;7.036;2022-08-19T06:41:37;6.17;;;5.60;;
15425;SDS011;7812;50.072;7.036;2022-08-19T06:44:04;5.83;;;5.30;;
15425;SDS011;7812;50.072;7.036;2022-08-19T06:46:30;8.33;;;5.43;;
15425;SDS011;7812;50.072;7.036;2022-08-19T06:48:56;4.83;;;4.50;;
15425;SDS011;7812;50.072;7.036;2022-08-19T06:51:23;5.30;;;4.90;;
15425;SDS011;7812;50.072;7.036;2022-08-19T06:53:50;5.63;;;5.23;;
15425;SDS011;7812;50.072;7.036;2022-08-19T06:56:19;5.50;;;5.10;;
15425;SDS011;7812;50.072;7.036;2022-08-19T06:58:48;5.33;;;4.93;;
15425;SDS011;7812;50.072;7.036;2022-08-19T07:01:17;6.30;;;5.80;;
15425;SDS011;7812;50.072;7.036;2022-08-19T07:03:44;5.90;;;5.40;;
15425;SDS011;7812;50.072;7.036;2022-08-19T07:06:12;9.17;;;8.37;;
15425;SDS011;7812;50.072;7.036;2022-08-19T07:08:42;10.97;;;10.00;;
15425;SDS011;7812;50.072;7.036;2022-08-19T07:11:13;11.20;;;10.13;;
15425;SDS011;7812;50.072;7.036;2022-08-19T07:13:42;12.23;;;11.13;;
15425;SDS011;7812;50.072;7.036;2022-08-19T07:16:09;11.20;;;10.10;;
15425;SDS011;7812;50.072;7.036;2022-08-19T07:18:37;10.40;;;9.50;;
15425;SDS011;7812;50.072;7.036;2022-08-19T07:21:06;12.53;;;9.23;;
15425;SDS011;7812;50.072;7.036;2022-08-19T07:23:35;10.23;;;9.23;;
15425;SDS011;7812;50.072;7.036;2022-08-19T07:26:08;10.13;;;9.13;;
15425;SDS011;7812;50.072;7.036;2022-08-19T07:28:36;8.90;;;8.00;;
15425;SDS011;7812;50.072;7.036;2022-08-19T07:31:07;9.00;;;8.13;;
15425;SDS011;7812;50.072;7.036;2022-08-19T07:33:34;9.07;;;6.73;;
15425;SDS011;7812;50.072;7.036;2022-08-19T07:36:03;7.40;;;6.80;;
15425;SDS011;7812;50.072;7.036;2022-08-19T07:38:30;7.77;;;6.97;;
15425;SDS011;7812;50.072;7.036;2022-08-19T07:40:58;6.60;;;5.90;;
15425;SDS011;7812;50.072;7.036;2022-08-19T07:43:24;8.03;;;7.33;;
15425;SDS011;7812;50.072;7.036;2022-08-19T07:45:51;7.77;;;6.43;;
15425;SDS011;7812;50.072;7.036;2022-08-19T07:48:25;6.70;;;6.10;;
15425;SDS011;7812;50.072;7.036;2022-08-19T07:50:53;8.20;;;7.20;;
15425;SDS011;7812;50.072;7.036;2022-08-19T07:53:30;6.82;;;5.68;;
15425;SDS011;7812;50.072;7.036;2022-08-19T07:55:57;6.63;;;6.03;;
15425;SDS011;7812;50.072;7.036;2022-08-19T07:58:26;6.73;;;5.60;;
15425;SDS011;7812;50.072;7.036;2022-08-19T08:00:53;6.73;;;6.07;;
15425;SDS011;7812;50.072;7.036;2022-08-19T08:03:19;6.90;;;6.20;;
15425;SDS011;7812;50.072;7.036;2022-08-19T08:06:06;6.20;;;5.03;;
15425;SDS011;7812;50.072;7.036;2022-08-19T08:08:51;4.73;;;4.40;;
15425;SDS011;7812;50.072;7.036;2022-08-19T08:11:35;5.67;;;5.10;;
15425;SDS011;7812;50.072;7.036;2022-08-19T08:14:02;5.30;;;4.90;;
15425;SDS011;7812;50.072;7.036;2022-08-19T08:16:30;5.20;;;4.80;;
15425;SDS011;7812;50.072;7.036;2022-08-19T08:18:59;6.83;;;5.57;;
15425;SDS011;7812;50.072;7.036;2022-08-19T08:21:25;5.40;;;5.00;;
15425;SDS011;7812;50.072;7.036;2022-08-19T08:23:51;7.37;;;6.67;;
15425;SDS011;7812;50.072;7.036;2022-08-19T08:26:18;7.07;;;6.47;;
15425;SDS011;7812;50.072;7.036;2022-08-19T08:28:44;6.20;;;5.70;;
15425;SDS011;7812;50.072;7.036;2022-08-19T08:31:12;5.33;;;4.80;;
15425;SDS011;7812;50.072;7.036;2022-08-19T08:33:38;4.80;;;4.40;;
15425;SDS011;7812;50.072;7.036;2022-08-19T08:36:07;5.70;;;5.20;;
15425;SDS011;7812;50.072;7.036;2022-08-19T08:38:34;6.30;;;5.70;;
15425;SDS011;7812;50.072;7.036;2022-08-19T08:41:03;5.17;;;4.67;;
15425;SDS011;7812;50.072;7.036;2022-08-19T08:43:39;6.03;;;5.50;;
15425;SDS011;7812;50.072;7.036;2022-08-19T08:46:10;5.40;;;5.00;;
15425;SDS011;7812;50.072;7.036;2022-08-19T08:51:51;5.67;;;5.00;;
15425;SDS011;7812;50.072;7.036;2022-08-19T08:54:40;5.40;;;4.97;;
15425;SDS011;7812;50.072;7.036;2022-08-19T08:57:20;7.93;;;5.80;;
15425;SDS011;7812;50.072;7.036;2022-08-19T08:59:53;5.50;;;5.10;;
15425;SDS011;7812;50.072;7.036;2022-08-19T09:02:22;6.43;;;5.83;;
15425;SDS011;7812;50.072;7.036;2022-08-19T09:04:47;6.27;;;5.73;;
15425;SDS011;7812;50.072;7.036;2022-08-19T09:10:02;5.87;;;5.13;;
15425;SDS011;7812;50.072;7.036;2022-08-19T09:12:45;5.80;;;5.20;;
15425;SDS011;7812;50.072;7.036;2022-08-19T09:15:30;5.50;;;5.00;;
15425;SDS011;7812;50.072;7.036;2022-08-19T09:18:02;5.80;;;5.30;;
15425;SDS011;7812;50.072;7.036;2022-08-19T09:20:29;6.13;;;5.20;;
15425;SDS011;7812;50.072;7.036;2022-08-19T09:22:56;6.03;;;5.50;;
15425;SDS011;7812;50.072;7.036;2022-08-19T09:25:23;6.20;;;5.80;;
15425;SDS011;7812;50.072;7.036;2022-08-19T09:27:50;6.10;;;5.60;;
15425;SDS011;7812;50.072;7.036;2022-08-19T09:30:21;5.67;;;5.17;;
15425;SDS011;7812;50.072;7.036;2022-08-19T09:32:50;4.67;;;4.27;;
15425;SDS011;7812;50.072;7.036;2022-08-19T09:35:18;5.33;;;4.83;;
15425;SDS011;7812;50.072;7.036;2022-08-19T09:37:47;5.97;;;5.33;;
15425;SDS011;7812;50.072;7.036;2022-08-19T09:40:14;5.60;;;5.20;;
15425;SDS011;7812;50.072;7.036;2022-08-19T09:42:40;5.07;;;4.57;;
15425;SDS011;7812;50.072;7.036;2022-08-19T09:45:08;6.00;;;3.80;;
15425;SDS011;7812;50.072;7.036;2022-08-19T09:47:35;3.87;;;3.57;;
15425;SDS011;7812;50.072;7.036;2022-08-19T09:50:07;5.60;;;4.90;;
15425;SDS011;7812;50.072;7.036;2022-08-19T09:52:34;6.03;;;4.70;;
15425;SDS011;7812;50.072;7.036;2022-08-19T09:55:02;4.70;;;4.20;;
15425;SDS011;7812;50.072;7.036;2022-08-19T10:00:26;4.93;;;3.70;;
15425;SDS011;7812;50.072;7.036;2022-08-19T10:02:53;4.73;;;3.17;;
15425;SDS011;7812;50.072;7.036;2022-08-19T10:05:18;3.67;;;3.37;;
15425;SDS011;7812;50.072;7.036;2022-08-19T10:08:03;4.93;;;4.53;;
15425;SDS011;7812;50.072;7.036;2022-08-19T10:10:28;4.07;;;3.70;;
15425;SDS011;7812;50.072;7.036;2022-08-19T10:12:54;3.63;;;3.23;;
15425;SDS011;7812;50.072;7.036;2022-08-19T10:15:20;4.50;;;4.10;;
15425;SDS011;7812;50.072;7.036;2022-08-19T10:17:46;4.47;;;3.87;;
15425;SDS011;7812;50.072;7.036;2022-08-19T10:20:12;4.43;;;4.03;;
15425;SDS011;7812;50.072;7.036;2022-08-19T10:22:38;4.50;;;4.10;;
15425;SDS011;7812;50.072;7.036;2022-08-19T10:25:04;4.27;;;3.87;;
15425;SDS011;7812;50.072;7.036;2022-08-19T10:27:31;4.13;;;3.80;;
15425;SDS011;7812;50.072;7.036;2022-08-19T10:29:57;5.60;;;3.90;;
15425;SDS011;7812;50.072;7.036;2022-08-19T10:32:22;4.20;;;3.90;;
15425;SDS011;7812;50.072;7.036;2022-08-19T10:34:50;4.73;;;4.13;;
15425;SDS011;7812;50.072;7.036;2022-08-19T10:37:17;4.67;;;4.27;;
15425;SDS011;7812;50.072;7.036;2022-08-19T10:39:45;5.23;;;4.67;;
15425;SDS011;7812;50.072;7.036;2022-08-19T10:42:12;5.37;;;4.50;;
15425;SDS011;7812;50.072;7.036;2022-08-19T10:44:39;5.33;;;4.83;;
15425;SDS011;7812;50.072;7.036;2022-08-19T10:47:05;5.30;;;4.80;;
15425;SDS011;7812;50.072;7.036;2022-08-19T10:49:31;5.10;;;4.73;;
15425;SDS011;7812;50.072;7.036;2022-08-19T10:51:57;5.13;;;4.63;;
15425;SDS011;7812;50.072;7.036;2022-08-19T10:54:41;5.50;;;5.10;;
15425;SDS011;7812;50.072;7.036;2022-08-19T10:57:25;5.53;;;5.03;;
15425;SDS011;7812;50.072;7.036;2022-08-19T10:59:55;5.50;;;4.97;;
15425;SDS011;7812;50.072;7.036;2022-08-19T11:02:21;4.80;;;4.50;;
15425;SDS011;7812;50.072;7.036;2022-08-19T11:04:47;4.93;;;4.53;;
15425;SDS011;7812;50.072;7.036;2022-08-19T11:07:15;5.10;;;4.63;;
15425;SDS011;7812;50.072;7.036;2022-08-19T11:09:41;5.17;;;4.67;;
15425;SDS011;7812;50.072;7.036;2022-08-19T11:12:08;4.60;;;4.20;;
15425;SDS011;7812;50.072;7.036;2022-08-19T11:14:34;5.40;;;4.90;;
15425;SDS011;7812;50.072;7.036;2022-08-19T11:17:01;5.00;;;4.60;;
15425;SDS011;7812;50.072;7.036;2022-08-19T11:19:28;5.70;;;4.73;;
15425;SDS011;7812;50.072;7.036;2022-08-19T11:21:55;4.83;;;4.50;;
15425;SDS011;7812;50.072;7.036;2022-08-19T11:24:22;5.20;;;4.80;;
15425;SDS011;7812;50.072;7.036;2022-08-19T11:26:51;5.63;;;5.10;;
15425;SDS011;7812;50.072;7.036;2022-08-19T11:29:21;6.10;;;5.60;;
15425;SDS011;7812;50.072;7.036;2022-08-19T11:31:51;5.23;;;4.83;;
15425;SDS011;7812;50.072;7.036;2022-08-19T11:34:19;5.27;;;4.77;;
15425;SDS011;7812;50.072;7.036;2022-08-19T11:36:47;5.73;;;5.23;;
15425;SDS011;7812;50.072;7.036;2022-08-19T11:39:15;5.03;;;4.53;;
15425;SDS011;7812;50.072;7.036;2022-08-19T11:41:43;4.97;;;3.90;;
15425;SDS011;7812;50.072;7.036;2022-08-19T11:44:09;4.57;;;4.27;;
15425;SDS011;7812;50.072;7.036;2022-08-19T11:46:36;5.10;;;4.70;;
15425;SDS011;7812;50.072;7.036;2022-08-19T11:49:03;5.40;;;4.90;;
15425;SDS011;7812;50.072;7.036;2022-08-19T11:51:30;5.20;;;4.70;;
15425;SDS011;7812;50.072;7.036;2022-08-19T11:53:57;5.07;;;4.53;;
15425;SDS011;7812;50.072;7.036;2022-08-19T11:56:24;4.93;;;4.53;;
15425;SDS011;7812;50.072;7.036;2022-08-19T11:58:50;4.93;;;4.33;;
15425;SDS011;7812;50.072;7.036;2022-08-19T12:01:17;5.20;;;4.70;;
15425;SDS011;7812;50.072;7.036;2022-08-19T12:03:46;4.77;;;4.43;;
15425;SDS011;7812;50.072;7.036;2022-08-19T12:06:15;4.93;;;4.50;;
15425;SDS011;7812;50.072;7.036;2022-08-19T12:08:48;5.70;;;5.20;;
15425;SDS011;7812;50.072;7.036;2022-08-19T12:11:13;6.67;;;5.30;;
15425;SDS011;7812;50.072;7.036;2022-08-19T12:13:39;5.53;;;5.13;;
15425;SDS011;7812;50.072;7.036;2022-08-19T12:16:09;6.90;;;6.20;;
15425;SDS011;7812;50.072;7.036;2022-08-19T12:18:37;6.93;;;6.33;;
15425;SDS011;7812;50.072;7.036;2022-08-19T12:21:07;8.00;;;7.20;;
15425;SDS011;7812;50.072;7.036;2022-08-19T12:23:35;7.30;;;6.67;;
15425;SDS011;7812;50.072;7.036;2022-08-19T12:26:02;6.63;;;6.13;;
15425;SDS011;7812;50.072;7.036;2022-08-19T12:28:28;8.13;;;7.20;;
15425;SDS011;7812;50.072;7.036;2022-08-19T12:30:55;7.87;;;6.67;;
15425;SDS011;7812;50.072;7.036;2022-08-19T12:33:22;6.73;;;6.13;;
15425;SDS011;7812;50.072;7.036;2022-08-19T12:35:50;6.70;;;6.10;;
15425;SDS011;7812;50.072;7.036;2022-08-19T12:38:17;7.00;;;6.40;;
15425;SDS011;7812;50.072;7.036;2022-08-19T12:40:46;6.50;;;5.90;;
15425;SDS011;7812;50.072;7.036;2022-08-19T12:43:12;7.23;;;6.53;;
15425;SDS011;7812;50.072;7.036;2022-08-19T12:45:40;6.90;;;6.30;;
15425;SDS011;7812;50.072;7.036;2022-08-19T12:48:07;6.50;;;6.00;;
15425;SDS011;7812;50.072;7.036;2022-08-19T12:50:33;6.47;;;5.83;;
15425;SDS011;7812;50.072;7.036;2022-08-19T12:52:59;6.10;;;5.50;;
15425;SDS011;7812;50.072;7.036;2022-08-19T12:55:25;6.50;;;5.90;;
15425;SDS011;7812;50.072;7.036;2022-08-19T12:57:53;6.37;;;5.77;;
15425;SDS011;7812;50.072;7.036;2022-08-19T13:00:20;6.13;;;5.63;;
15425;SDS011;7812;50.072;7.036;2022-08-19T13:02:48;5.77;;;5.27;;
15425;SDS011;7812;50.072;7.036;2022-08-19T13:05:18;5.93;;;5.43;;
15425;SDS011;7812;50.072;7.036;2022-08-19T13:07:47;5.43;;;5.03;;
15425;SDS011;7812;50.072;7.036;2022-08-19T13:10:16;5.80;;;5.30;;
15425;SDS011;7812;50.072;7.036;2022-08-19T13:12:45;5.80;;;5.30;;
15425;SDS011;7812;50.072;7.036;2022-08-19T13:15:13;5.68;;;5.10;;
15425;SDS011;7812;50.072;7.036;2022-08-19T13:17:43;4.50;;;4.10;;
15425;SDS011;7812;50.072;7.036;2022-08-19T13:20:09;5.03;;;4.57;;
15425;SDS011;7812;50.072;7.036;2022-08-19T13:22:36;5.20;;;4.80;;
15425;SDS011;7812;50.072;7.036;2022-08-19T13:25:03;5.07;;;4.67;;
15425;SDS011;7812;50.072;7.036;2022-08-19T13:27:29;4.73;;;4.23;;
15425;SDS011;7812;50.072;7.036;2022-08-19T13:29:55;4.67;;;4.27;;
15425;SDS011;7812;50.072;7.036;2022-08-19T13:32:40;4.50;;;4.10;;
15425;SDS011;7812;50.072;7.036;2022-08-19T13:35:24;5.00;;;4.60;;
15425;SDS011;7812;50.072;7.036;2022-08-19T13:37:49;5.47;;;4.97;;
15425;SDS011;7812;50.072;7.036;2022-08-19T13:40:16;5.00;;;4.60;;
15425;SDS011;7812;50.072;7.036;2022-08-19T13:42:45;4.93;;;4.50;;
15425;SDS011;7812;50.072;7.036;2022-08-19T13:45:13;4.30;;;3.83;;
15425;SDS011;7812;50.072;7.036;2022-08-19T13:47:41;4.77;;;3.87;;
15425;SDS011;7812;50.072;7.036;2022-08-19T13:50:10;4.00;;;3.70;;
15425;SDS011;7812;50.072;7.036;2022-08-19T13:52:40;4.10;;;3.77;;
15425;SDS011;7812;50.072;7.036;2022-08-19T13:55:07;4.30;;;3.90;;
15425;SDS011;7812;50.072;7.036;2022-08-19T13:57:34;3.80;;;3.50;;
15425;SDS011;7812;50.072;7.036;2022-08-19T14:00:02;5.60;;;3.87;;
15425;SDS011;7812;50.072;7.036;2022-08-19T14:02:29;3.90;;;3.60;;
15425;SDS011;7812;50.072;7.036;2022-08-19T14:04:55;4.33;;;3.70;;
15425;SDS011;7812;50.072;7.036;2022-08-19T14:07:20;4.40;;;4.00;;
15425;SDS011;7812;50.072;7.036;2022-08-19T14:09:48;3.93;;;3.57;;
15425;SDS011;7812;50.072;7.036;2022-08-19T14:12:18;6.23;;;3.97;;
15425;SDS011;7812;50.072;7.036;2022-08-19T14:14:45;3.90;;;3.60;;
15425;SDS011;7812;50.072;7.036;2022-08-19T14:17:10;4.20;;;3.80;;
15425;SDS011;7812;50.072;7.036;2022-08-19T14:19:37;4.03;;;3.73;;
15425;SDS011;7812;50.072;7.036;2022-08-19T14:22:02;4.47;;;4.10;;
15425;SDS011;7812;50.072;7.036;2022-08-19T14:24:30;4.70;;;4.30;;
15425;SDS011;7812;50.072;7.036;2022-08-19T14:26:57;5.03;;;4.60;;
15425;SDS011;7812;50.072;7.036;2022-08-19T14:29:22;5.60;;;5.10;;
15425;SDS011;7812;50.072;7.036;2022-08-19T14:31:48;5.53;;;5.03;;
15425;SDS011;7812;50.072;7.036;2022-08-19T14:34:14;4.73;;;4.33;;
15425;SDS011;7812;50.072;7.036;2022-08-19T14:36:39;4.90;;;4.50;;
15425;SDS011;7812;50.072;7.036;2022-08-19T14:39:07;4.70;;;4.30;;
15425;SDS011;7812;50.072;7.036;2022-08-19T14:41:34;5.07;;;4.67;;
15425;SDS011;7812;50.072;7.036;2022-08-19T14:44:00;4.70;;;4.30;;
15425;SDS011;7812;50.072;7.036;2022-08-19T14:46:27;5.30;;;4.50;;
15425;SDS011;7812;50.072;7.036;2022-08-19T14:48:53;5.40;;;4.87;;
15425;SDS011;7812;50.072;7.036;2022-08-19T14:51:20;4.70;;;4.17;;
15425;SDS011;7812;50.072;7.036;2022-08-19T14:53:47;4.60;;;4.20;;
15425;SDS011;7812;50.072;7.036;2022-08-19T14:56:14;4.60;;;4.20;;
15425;SDS011;7812;50.072;7.036;2022-08-19T14:58:42;4.53;;;4.13;;
15425;SDS011;7812;50.072;7.036;2022-08-19T15:01:10;4.90;;;4.40;;
15425;SDS011;7812;50.072;7.036;2022-08-19T15:03:36;4.67;;;4.27;;
15425;SDS011;7812;50.072;7.036;2022-08-19T15:06:04;4.33;;;3.93;;
15425;SDS011;7812;50.072;7.036;2022-08-19T15:08:30;4.40;;;4.00;;
15425;SDS011;7812;50.072;7.036;2022-08-19T15:10:57;5.17;;;4.70;;
15425;SDS011;7812;50.072;7.036;2022-08-19T15:13:24;5.20;;;4.70;;
15425;SDS011;7812;50.072;7.036;2022-08-19T15:15:52;4.43;;;4.13;;
15425;SDS011;7812;50.072;7.036;2022-08-19T15:18:18;4.90;;;4.03;;